createdAt,value
2022-10-12T00:01:11.251Z,99104.3
2022-10-12T00:07:02.724Z,99105.4
2022-10-12T00:12:37.657Z,99108
2022-10-12T00:18:12.527Z,99110.9
2022-10-12T00:23:47.287Z,99106.7
2022-10-12T00:29:43.336Z,99107.9
2022-10-12T00:35:20.945Z,99099.3
2022-10-12T00:41:03.889Z,99099.6
2022-10-12T00:46:49.138Z,99107.9
2022-10-12T00:52:50.221Z,99114.2
2022-10-12T00:58:25.519Z,99110.3
2022-10-12T01:04:00.414Z,99109.3
2022-10-12T01:09:39.311Z,99110.2
2022-10-12T01:15:14.049Z,99105.6
2022-10-12T01:20:57.833Z,99100.1
2022-10-12T01:26:32.756Z,99092.4
2022-10-12T01:32:21.683Z,99090.4
2022-10-12T01:37:58.447Z,99091.1
2022-10-12T01:43:33.360Z,99097.7
2022-10-12T01:49:08.676Z,99093
2022-10-12T01:54:45.972Z,99090
2022-10-12T02:00:21.186Z,99088.5
2022-10-12T02:05:55.998Z,99081.6
2022-10-12T02:11:34.315Z,99075.6
2022-10-12T02:17:09.995Z,99070.4
2022-10-12T02:23:07.016Z,99064.1
2022-10-12T02:28:42.785Z,99066
2022-10-12T02:34:18.414Z,99071.1
2022-10-12T02:39:56.658Z,99070.3
2022-10-12T02:45:38.191Z,99069.2
2022-10-12T02:51:12.926Z,99068.9
2022-10-12T02:57:26.496Z,99066.5
2022-10-12T03:03:39.653Z,99067.3
2022-10-12T03:09:24.180Z,99065.3
2022-10-12T03:14:58.849Z,99062
2022-10-12T03:20:45.922Z,99058.3
2022-10-12T03:26:27.707Z,99054.2
2022-10-12T03:32:23.553Z,99056.5
2022-10-12T03:37:58.346Z,99054.3
2022-10-12T03:44:22.076Z,99056.8
2022-10-12T03:50:00.552Z,99059.8
2022-10-12T03:55:37.770Z,99060.5
2022-10-12T04:01:15.148Z,99063.9
2022-10-12T04:06:51.712Z,99067.1
2022-10-12T04:12:26.633Z,99064.7
2022-10-12T04:18:01.650Z,99063
2022-10-12T04:23:54.175Z,99062.7
2022-10-12T04:29:29.112Z,99064.9
2022-10-12T04:35:05.289Z,99069.3
2022-10-12T04:40:40.259Z,99066.2
2022-10-12T04:46:15.157Z,99068.4
2022-10-12T04:51:57.232Z,99067.5
2022-10-12T04:57:32.016Z,99066.8
2022-10-12T05:03:15.715Z,99065.2
2022-10-12T05:08:53.060Z,99071
2022-10-12T05:16:06.331Z,99070.7
2022-10-12T05:21:41.058Z,99072.8
2022-10-12T05:27:44.327Z,99078.1
2022-10-12T05:33:22.109Z,99081.7
2022-10-12T05:39:24.968Z,99086.5
2022-10-12T05:45:00.086Z,99088.2
2022-10-12T05:50:55.045Z,99083.7
2022-10-12T05:56:48.057Z,99084.5
2022-10-12T06:02:30.657Z,99086.1
2022-10-12T06:08:05.454Z,99093.1
2022-10-12T06:13:40.460Z,99097.1
2022-10-12T06:19:15.362Z,99094.6
2022-10-12T06:24:50.299Z,99098.4
2022-10-12T06:30:28.547Z,99098.1
2022-10-12T06:36:03.616Z,99102.3
2022-10-12T06:41:39.216Z,99108.7
2022-10-12T06:47:19.940Z,99119.7
2022-10-12T06:52:55.123Z,99126.5
2022-10-12T06:58:31.042Z,99136
2022-10-12T07:04:56.445Z,99134.7
2022-10-12T07:10:34.184Z,99142.8
2022-10-12T07:16:12.634Z,99154.8
2022-10-12T07:22:09.551Z,99160.8
2022-10-12T07:27:48.945Z,99165.1
2022-10-12T07:33:36.391Z,99179.8
2022-10-12T07:39:36.598Z,99180.1
2022-10-12T07:45:17.949Z,99183
2022-10-12T07:50:53.762Z,99187.6
2022-10-12T07:56:28.884Z,99189
2022-10-12T08:03:44.846Z,99191.2
2022-10-12T08:09:23.196Z,99193.7
2022-10-12T08:15:06.781Z,99202.3
2022-10-12T08:20:55.802Z,99209.9
2022-10-12T08:27:02.289Z,99215.1
2022-10-12T08:32:36.983Z,99217.7
2022-10-12T08:38:12.394Z,99217.5
2022-10-12T08:43:56.377Z,99219.5
2022-10-12T08:49:31.707Z,99217.7
2022-10-12T08:55:06.518Z,99221.4
2022-10-12T09:00:42.320Z,99232.1
2022-10-12T09:06:18.559Z,99231.5
2022-10-12T09:11:54.158Z,99231.4
2022-10-12T09:17:29.103Z,99236.4
2022-10-12T09:23:03.945Z,99238.7
2022-10-12T09:28:39.430Z,99238.3
2022-10-12T09:34:20.034Z,99240.4
2022-10-12T09:39:55.202Z,99241.9
2022-10-12T09:45:30.450Z,99239.4
2022-10-12T09:51:05.359Z,99245.6
2022-10-12T09:56:40.547Z,99251
2022-10-12T10:02:15.998Z,99255.5
2022-10-12T10:07:51.926Z,99253.9
2022-10-12T10:13:26.941Z,99250.5
2022-10-12T10:19:02.060Z,99249.1
2022-10-12T10:24:38.978Z,99253.1
2022-10-12T10:30:39.884Z,99250.8
2022-10-12T10:36:19.458Z,99247.5
2022-10-12T10:41:54.623Z,99251.3
2022-10-12T10:47:29.724Z,99251.9
2022-10-12T10:53:04.668Z,99251.3
2022-10-12T10:58:39.467Z,99252.6
2022-10-12T11:04:14.947Z,99251.1
2022-10-12T11:09:50.093Z,99256.3
2022-10-12T11:15:25.201Z,99256.5
2022-10-12T11:21:20.367Z,99249.2
2022-10-12T11:26:55.392Z,99247.7
2022-10-12T11:32:30.703Z,99243.7
2022-10-12T11:38:05.820Z,99241.7
2022-10-12T11:43:41.130Z,99242.5
2022-10-12T11:49:16.379Z,99239.3
2022-10-12T11:54:51.311Z,99238.3
2022-10-12T12:00:26.157Z,99235.9
2022-10-12T12:06:01.153Z,99223.8
2022-10-12T12:11:36.051Z,99219.7
2022-10-12T12:17:11.196Z,99218
2022-10-12T12:22:46.210Z,99213.3
2022-10-12T12:28:22.318Z,99207.3
2022-10-12T12:33:57.784Z,99204.8
2022-10-12T12:39:37.742Z,99199.3
2022-10-12T12:45:12.710Z,99206.3
2022-10-12T12:50:47.495Z,99202.4
2022-10-12T12:56:22.273Z,99189.2
2022-10-12T13:01:57.879Z,99189.8
2022-10-12T13:07:34.646Z,99189.5
2022-10-12T13:13:10.042Z,99189
2022-10-12T13:18:49.780Z,99188.8
2022-10-12T13:24:24.975Z,99187.2
2022-10-12T13:29:59.926Z,99181.1
2022-10-12T13:35:35.537Z,99180.8
2022-10-12T13:41:10.704Z,99185.1
2022-10-12T13:46:45.952Z,99177.6
2022-10-12T13:52:20.875Z,99172.5
2022-10-12T13:57:56.079Z,99171.9
2022-10-12T14:03:31.132Z,99175.7
2022-10-12T14:09:06.072Z,99176.3
2022-10-12T14:14:41.018Z,99178.5
2022-10-12T14:20:21.027Z,99178.3
2022-10-12T14:25:56.136Z,99175.3
2022-10-12T14:31:31.624Z,99179.7
2022-10-12T14:37:07.510Z,99177.3
2022-10-12T14:42:42.371Z,99168.1
2022-10-12T14:48:21.560Z,99167.3
2022-10-12T14:53:57.655Z,99175
2022-10-12T14:59:32.646Z,99174.8
2022-10-12T15:05:07.754Z,99170.6
2022-10-12T15:10:42.791Z,99171.6
2022-10-12T15:16:17.827Z,99170
2022-10-12T15:21:53.318Z,99167.6
2022-10-12T15:27:28.469Z,99162
2022-10-12T15:33:03.409Z,99160
2022-10-12T15:38:38.710Z,99162.9
2022-10-12T15:44:13.687Z,99167.7
2022-10-12T15:49:48.683Z,99162.6
2022-10-12T15:55:24.064Z,99159.3
2022-10-12T16:00:59.856Z,99158.9
2022-10-12T16:06:35.121Z,99153.5
2022-10-12T16:12:09.999Z,99150
2022-10-12T16:17:45.033Z,99145.9
2022-10-12T16:23:19.886Z,99151.4
2022-10-12T16:28:55.127Z,99153.6
2022-10-12T16:34:30.573Z,99163
2022-10-12T16:40:06.244Z,99168.7
2022-10-12T16:45:41.264Z,99171.1
2022-10-12T16:51:16.258Z,99176.8
2022-10-12T16:56:50.922Z,99179.9
2022-10-12T17:02:26.081Z,99190.4
2022-10-12T17:08:16.204Z,99191.8
2022-10-12T17:13:51.189Z,99189.9
2022-10-12T17:19:25.974Z,99198.2
2022-10-12T17:25:01.399Z,99218.3
2022-10-12T17:30:36.145Z,99231
2022-10-12T17:36:11.117Z,99236
2022-10-12T17:41:56.486Z,99242.6
2022-10-12T17:47:31.623Z,99246.9
2022-10-12T17:53:06.718Z,99250.4
2022-10-12T17:58:41.938Z,99262.1
2022-10-12T18:04:34.474Z,99269.2
2022-10-12T18:10:09.851Z,99276.1
2022-10-12T18:15:45.374Z,99271.7
2022-10-12T18:21:30.718Z,99263.1
2022-10-12T18:27:11.832Z,99270.9
2022-10-12T18:32:55.936Z,99287.9
2022-10-12T18:38:30.757Z,99298.2
2022-10-12T18:44:05.782Z,99307.8
2022-10-12T18:49:42.044Z,99303.4
2022-10-12T18:55:16.799Z,99295
2022-10-12T19:00:53.541Z,99296.3
2022-10-12T19:06:29.898Z,99289.8
2022-10-12T19:12:05.198Z,99287.5
2022-10-12T19:17:40.849Z,99290.2
2022-10-12T19:23:15.765Z,99288
2022-10-12T19:29:16.632Z,99301
2022-10-12T19:34:57.299Z,99301.5
2022-10-12T19:40:33.750Z,99303.5
2022-10-12T19:46:08.530Z,99308.6
2022-10-12T19:51:44.056Z,99313.3
2022-10-12T19:57:20.123Z,99320.1
2022-10-12T20:02:58.413Z,99319.3
2022-10-12T20:08:33.643Z,99325.6
2022-10-12T20:14:26.190Z,99334.6
2022-10-12T20:20:01.157Z,99338.6
2022-10-12T20:25:46.105Z,99330.5
2022-10-12T20:31:21.954Z,99333.2
2022-10-12T20:36:58.966Z,99332.4
2022-10-12T20:42:49.596Z,99328.4
2022-10-12T20:48:25.571Z,99335
2022-10-12T20:54:02.715Z,99324.8
2022-10-12T21:00:23.075Z,99323.8
2022-10-12T21:05:57.723Z,99316.6
2022-10-12T21:11:32.858Z,99308.4
2022-10-12T21:17:07.727Z,99324.5
2022-10-12T21:22:43.637Z,99330.9
2022-10-12T21:28:49.571Z,99338
2022-10-12T21:34:28.777Z,99342.2
2022-10-12T21:40:11.638Z,99335.3
2022-10-12T21:46:07.608Z,99320.4
2022-10-12T21:51:43.206Z,99313.5
2022-10-12T21:57:19.148Z,99308.6
2022-10-12T22:02:54.057Z,99317.3
2022-10-12T22:08:29.181Z,99310.4
2022-10-12T22:14:04.698Z,99323.6
2022-10-12T22:19:46.315Z,99326.2
2022-10-12T22:25:21.930Z,99335.1
2022-10-12T22:30:56.715Z,99326.9
2022-10-12T22:36:31.575Z,99327.3
2022-10-12T22:42:12.663Z,99323.8
2022-10-12T22:48:17.822Z,99316.7
2022-10-12T22:53:53.008Z,99309.2
2022-10-12T22:59:27.773Z,99308.4
2022-10-12T23:05:06.202Z,99308.7
2022-10-12T23:10:47.614Z,99302.7
2022-10-12T23:16:22.544Z,99304.1
2022-10-12T23:21:57.343Z,99302.9
2022-10-12T23:27:32.268Z,99311.7
2022-10-12T23:33:07.042Z,99306.5
2022-10-12T23:38:44.342Z,99310.2
2022-10-12T23:44:24.795Z,99320.1
2022-10-12T23:49:59.975Z,99316.6
2022-10-12T23:55:35.679Z,99309.1
